sensor_id;sensor_type;location;lat;lon;timestamp;P1;durP1;ratioP1;P2;durP2;ratioP2
45488;SDS011;31236;55.026;61.042;2022-07-23T00:00:54;8.80;;;3.40;;
45488;SDS011;31236;55.026;61.042;2022-07-23T00:03:24;5.53;;;3.05;;
45488;SDS011;31236;55.026;61.042;2022-07-23T00:05:54;9.40;;;3.33;;
45488;SDS011;31236;55.026;61.042;2022-07-23T00:08:26;8.63;;;3.30;;
45488;SDS011;31236;55.026;61.042;2022-07-23T00:10:56;7.90;;;3.75;;
45488;SDS011;31236;55.026;61.042;2022-07-23T00:13:28;5.72;;;3.25;;
45488;SDS011;31236;55.026;61.042;2022-07-23T00:15:59;6.05;;;2.90;;
45488;SDS011;31236;55.026;61.042;2022-07-23T00:18:29;7.45;;;3.05;;
45488;SDS011;31236;55.026;61.042;2022-07-23T00:20:59;7.15;;;3.30;;
45488;SDS011;31236;55.026;61.042;2022-07-23T00:26:00;6.45;;;2.90;;
45488;SDS011;31236;55.026;61.042;2022-07-23T00:28:30;9.68;;;3.52;;
45488;SDS011;31236;55.026;61.042;2022-07-23T00:33:32;7.05;;;3.20;;
45488;SDS011;31236;55.026;61.042;2022-07-23T00:36:02;8.45;;;3.20;;
45488;SDS011;31236;55.026;61.042;2022-07-23T00:38:33;8.90;;;3.55;;
45488;SDS011;31236;55.026;61.042;2022-07-23T00:41:03;6.08;;;2.77;;
45488;SDS011;31236;55.026;61.042;2022-07-23T00:43:33;5.85;;;3.15;;
45488;SDS011;31236;55.026;61.042;2022-07-23T00:46:03;7.70;;;3.58;;
45488;SDS011;31236;55.026;61.042;2022-07-23T00:51:05;6.70;;;3.25;;
45488;SDS011;31236;55.026;61.042;2022-07-23T00:53:35;6.15;;;3.27;;
45488;SDS011;31236;55.026;61.042;2022-07-23T00:56:05;10.45;;;3.27;;
45488;SDS011;31236;55.026;61.042;2022-07-23T00:58:36;12.53;;;3.42;;
45488;SDS011;31236;55.026;61.042;2022-07-23T01:01:10;6.28;;;2.95;;
45488;SDS011;31236;55.026;61.042;2022-07-23T01:03:43;8.70;;;4.00;;
45488;SDS011;31236;55.026;61.042;2022-07-23T01:06:13;10.25;;;3.27;;
45488;SDS011;31236;55.026;61.042;2022-07-23T01:08:44;8.25;;;3.55;;
45488;SDS011;31236;55.026;61.042;2022-07-23T01:11:15;10.08;;;3.80;;
45488;SDS011;31236;55.026;61.042;2022-07-23T01:13:46;7.97;;;3.20;;
45488;SDS011;31236;55.026;61.042;2022-07-23T01:16:20;10.80;;;3.75;;
45488;SDS011;31236;55.026;61.042;2022-07-23T01:18:52;8.20;;;3.17;;
45488;SDS011;31236;55.026;61.042;2022-07-23T01:21:24;6.83;;;2.95;;
45488;SDS011;31236;55.026;61.042;2022-07-23T01:23:55;6.67;;;3.62;;
45488;SDS011;31236;55.026;61.042;2022-07-23T01:26:24;7.30;;;3.67;;
45488;SDS011;31236;55.026;61.042;2022-07-23T01:28:55;10.32;;;3.08;;
45488;SDS011;31236;55.026;61.042;2022-07-23T01:31:25;11.18;;;3.37;;
45488;SDS011;31236;55.026;61.042;2022-07-23T01:33:55;7.53;;;3.25;;
45488;SDS011;31236;55.026;61.042;2022-07-23T01:36:27;10.45;;;2.55;;
45488;SDS011;31236;55.026;61.042;2022-07-23T01:38:58;8.23;;;3.47;;
45488;SDS011;31236;55.026;61.042;2022-07-23T01:41:28;9.05;;;3.00;;
45488;SDS011;31236;55.026;61.042;2022-07-23T01:43:59;6.03;;;2.95;;
45488;SDS011;31236;55.026;61.042;2022-07-23T01:46:30;8.58;;;3.10;;
45488;SDS011;31236;55.026;61.042;2022-07-23T01:49:02;8.85;;;3.02;;
45488;SDS011;31236;55.026;61.042;2022-07-23T01:51:34;6.37;;;3.00;;
45488;SDS011;31236;55.026;61.042;2022-07-23T01:54:08;6.25;;;2.70;;
45488;SDS011;31236;55.026;61.042;2022-07-23T01:56:38;5.60;;;2.75;;
45488;SDS011;31236;55.026;61.042;2022-07-23T01:59:08;6.00;;;2.77;;
45488;SDS011;31236;55.026;61.042;2022-07-23T02:01:39;9.33;;;3.20;;
45488;SDS011;31236;55.026;61.042;2022-07-23T02:04:09;9.85;;;3.47;;
45488;SDS011;31236;55.026;61.042;2022-07-23T02:06:39;7.60;;;2.95;;
45488;SDS011;31236;55.026;61.042;2022-07-23T02:09:11;9.33;;;3.25;;
45488;SDS011;31236;55.026;61.042;2022-07-23T02:11:42;7.80;;;3.10;;
45488;SDS011;31236;55.026;61.042;2022-07-23T02:14:12;7.67;;;3.42;;
45488;SDS011;31236;55.026;61.042;2022-07-23T02:16:42;10.30;;;3.30;;
45488;SDS011;31236;55.026;61.042;2022-07-23T02:19:12;5.80;;;2.80;;
45488;SDS011;31236;55.026;61.042;2022-07-23T02:21:43;6.28;;;3.45;;
45488;SDS011;31236;55.026;61.042;2022-07-23T02:24:13;5.97;;;2.60;;
45488;SDS011;31236;55.026;61.042;2022-07-23T02:26:43;9.38;;;2.72;;
45488;SDS011;31236;55.026;61.042;2022-07-23T02:29:14;6.78;;;2.67;;
45488;SDS011;31236;55.026;61.042;2022-07-23T02:31:45;9.93;;;3.60;;
45488;SDS011;31236;55.026;61.042;2022-07-23T02:34:15;5.85;;;2.62;;
45488;SDS011;31236;55.026;61.042;2022-07-23T02:36:45;6.85;;;2.85;;
45488;SDS011;31236;55.026;61.042;2022-07-23T02:39:15;6.90;;;2.33;;
45488;SDS011;31236;55.026;61.042;2022-07-23T02:41:48;7.80;;;2.65;;
45488;SDS011;31236;55.026;61.042;2022-07-23T02:44:18;7.70;;;3.08;;
45488;SDS011;31236;55.026;61.042;2022-07-23T02:46:49;5.58;;;2.80;;
45488;SDS011;31236;55.026;61.042;2022-07-23T02:49:19;5.35;;;2.80;;
45488;SDS011;31236;55.026;61.042;2022-07-23T02:51:49;6.60;;;2.85;;
45488;SDS011;31236;55.026;61.042;2022-07-23T02:54:20;7.83;;;2.92;;
45488;SDS011;31236;55.026;61.042;2022-07-23T02:56:49;6.45;;;2.55;;
45488;SDS011;31236;55.026;61.042;2022-07-23T02:59:20;6.15;;;2.98;;
45488;SDS011;31236;55.026;61.042;2022-07-23T03:01:50;8.90;;;2.77;;
45488;SDS011;31236;55.026;61.042;2022-07-23T03:04:20;8.28;;;3.05;;
45488;SDS011;31236;55.026;61.042;2022-07-23T03:06:51;5.53;;;2.50;;
45488;SDS011;31236;55.026;61.042;2022-07-23T03:11:52;9.63;;;4.00;;
45488;SDS011;31236;55.026;61.042;2022-07-23T03:14:22;6.60;;;3.12;;
45488;SDS011;31236;55.026;61.042;2022-07-23T03:16:54;7.42;;;3.10;;
45488;SDS011;31236;55.026;61.042;2022-07-23T03:19:26;7.97;;;3.60;;
45488;SDS011;31236;55.026;61.042;2022-07-23T03:21:56;6.97;;;2.80;;
45488;SDS011;31236;55.026;61.042;2022-07-23T03:24:26;8.08;;;3.22;;
45488;SDS011;31236;55.026;61.042;2022-07-23T03:27:18;7.05;;;2.45;;
45488;SDS011;31236;55.026;61.042;2022-07-23T03:29:49;6.40;;;2.87;;
45488;SDS011;31236;55.026;61.042;2022-07-23T03:32:20;12.82;;;3.92;;
45488;SDS011;31236;55.026;61.042;2022-07-23T03:34:51;7.65;;;3.20;;
45488;SDS011;31236;55.026;61.042;2022-07-23T03:37:22;10.10;;;2.98;;
45488;SDS011;31236;55.026;61.042;2022-07-23T03:39:52;7.95;;;3.27;;
45488;SDS011;31236;55.026;61.042;2022-07-23T03:42:22;8.73;;;2.92;;
45488;SDS011;31236;55.026;61.042;2022-07-23T03:44:53;7.33;;;3.35;;
45488;SDS011;31236;55.026;61.042;2022-07-23T03:47:23;10.53;;;3.83;;
45488;SDS011;31236;55.026;61.042;2022-07-23T03:49:54;7.12;;;3.00;;
45488;SDS011;31236;55.026;61.042;2022-07-23T03:52:24;8.30;;;3.30;;
45488;SDS011;31236;55.026;61.042;2022-07-23T03:54:54;8.48;;;3.20;;
45488;SDS011;31236;55.026;61.042;2022-07-23T03:57:24;8.05;;;3.60;;
45488;SDS011;31236;55.026;61.042;2022-07-23T03:59:55;7.05;;;3.45;;
45488;SDS011;31236;55.026;61.042;2022-07-23T04:02:25;10.35;;;4.03;;
45488;SDS011;31236;55.026;61.042;2022-07-23T04:04:55;10.30;;;3.75;;
45488;SDS011;31236;55.026;61.042;2022-07-23T04:07:26;8.83;;;4.13;;
45488;SDS011;31236;55.026;61.042;2022-07-23T04:09:57;6.55;;;3.30;;
45488;SDS011;31236;55.026;61.042;2022-07-23T04:12:27;7.85;;;3.95;;
45488;SDS011;31236;55.026;61.042;2022-07-23T04:14:57;7.37;;;3.60;;
45488;SDS011;31236;55.026;61.042;2022-07-23T04:17:27;7.53;;;3.50;;
45488;SDS011;31236;55.026;61.042;2022-07-23T04:19:58;8.95;;;3.80;;
45488;SDS011;31236;55.026;61.042;2022-07-23T04:22:28;9.90;;;3.87;;
45488;SDS011;31236;55.026;61.042;2022-07-23T04:24:59;9.43;;;3.75;;
45488;SDS011;31236;55.026;61.042;2022-07-23T04:27:31;7.00;;;4.53;;
45488;SDS011;31236;55.026;61.042;2022-07-23T04:30:01;14.38;;;4.00;;
45488;SDS011;31236;55.026;61.042;2022-07-23T04:32:32;11.05;;;3.60;;
45488;SDS011;31236;55.026;61.042;2022-07-23T04:35:03;8.35;;;4.15;;
45488;SDS011;31236;55.026;61.042;2022-07-23T04:37:33;6.50;;;4.30;;
45488;SDS011;31236;55.026;61.042;2022-07-23T04:40:04;9.73;;;4.45;;
45488;SDS011;31236;55.026;61.042;2022-07-23T04:42:35;10.80;;;4.97;;
45488;SDS011;31236;55.026;61.042;2022-07-23T04:45:05;9.48;;;4.65;;
45488;SDS011;31236;55.026;61.042;2022-07-23T04:47:36;7.40;;;4.55;;
45488;SDS011;31236;55.026;61.042;2022-07-23T04:50:07;10.45;;;4.25;;
45488;SDS011;31236;55.026;61.042;2022-07-23T04:52:37;9.38;;;5.00;;
45488;SDS011;31236;55.026;61.042;2022-07-23T04:55:07;12.85;;;5.05;;
45488;SDS011;31236;55.026;61.042;2022-07-23T04:57:38;9.45;;;4.75;;
45488;SDS011;31236;55.026;61.042;2022-07-23T05:00:10;8.98;;;4.75;;
45488;SDS011;31236;55.026;61.042;2022-07-23T05:02:40;9.35;;;4.80;;
45488;SDS011;31236;55.026;61.042;2022-07-23T05:05:10;10.48;;;5.35;;
45488;SDS011;31236;55.026;61.042;2022-07-23T05:07:41;7.17;;;4.65;;
45488;SDS011;31236;55.026;61.042;2022-07-23T05:10:13;9.60;;;4.70;;
45488;SDS011;31236;55.026;61.042;2022-07-23T05:12:44;13.60;;;5.85;;
45488;SDS011;31236;55.026;61.042;2022-07-23T05:15:14;8.38;;;4.97;;
45488;SDS011;31236;55.026;61.042;2022-07-23T05:17:44;12.47;;;4.97;;
45488;SDS011;31236;55.026;61.042;2022-07-23T05:20:15;13.95;;;5.15;;
45488;SDS011;31236;55.026;61.042;2022-07-23T05:22:45;11.03;;;5.53;;
45488;SDS011;31236;55.026;61.042;2022-07-23T05:25:16;7.47;;;4.80;;
45488;SDS011;31236;55.026;61.042;2022-07-23T05:27:46;17.23;;;5.45;;
45488;SDS011;31236;55.026;61.042;2022-07-23T05:30:17;10.20;;;5.42;;
45488;SDS011;31236;55.026;61.042;2022-07-23T05:32:47;7.22;;;5.05;;
45488;SDS011;31236;55.026;61.042;2022-07-23T05:35:18;10.15;;;4.70;;
45488;SDS011;31236;55.026;61.042;2022-07-23T05:37:49;7.15;;;4.80;;
45488;SDS011;31236;55.026;61.042;2022-07-23T05:40:19;11.78;;;5.15;;
45488;SDS011;31236;55.026;61.042;2022-07-23T05:42:50;9.98;;;5.30;;
45488;SDS011;31236;55.026;61.042;2022-07-23T05:45:20;8.38;;;5.40;;
45488;SDS011;31236;55.026;61.042;2022-07-23T05:47:51;8.53;;;5.30;;
45488;SDS011;31236;55.026;61.042;2022-07-23T05:50:21;12.55;;;6.10;;
45488;SDS011;31236;55.026;61.042;2022-07-23T05:52:51;11.60;;;6.00;;
45488;SDS011;31236;55.026;61.042;2022-07-23T05:55:21;10.20;;;5.78;;
45488;SDS011;31236;55.026;61.042;2022-07-23T05:57:52;10.08;;;6.00;;
45488;SDS011;31236;55.026;61.042;2022-07-23T06:00:22;17.70;;;6.45;;
45488;SDS011;31236;55.026;61.042;2022-07-23T06:02:53;13.32;;;6.40;;
45488;SDS011;31236;55.026;61.042;2022-07-23T06:05:23;13.60;;;6.22;;
45488;SDS011;31236;55.026;61.042;2022-07-23T06:07:54;12.55;;;6.25;;
45488;SDS011;31236;55.026;61.042;2022-07-23T06:10:24;9.33;;;6.53;;
45488;SDS011;31236;55.026;61.042;2022-07-23T06:12:54;9.95;;;6.75;;
45488;SDS011;31236;55.026;61.042;2022-07-23T06:15:25;11.10;;;7.00;;
45488;SDS011;31236;55.026;61.042;2022-07-23T06:17:56;14.18;;;8.83;;
45488;SDS011;31236;55.026;61.042;2022-07-23T06:20:26;9.93;;;7.05;;
45488;SDS011;31236;55.026;61.042;2022-07-23T06:22:56;14.07;;;6.70;;
45488;SDS011;31236;55.026;61.042;2022-07-23T06:25:27;10.20;;;7.30;;
45488;SDS011;31236;55.026;61.042;2022-07-23T06:27:57;14.70;;;8.05;;
45488;SDS011;31236;55.026;61.042;2022-07-23T06:30:28;11.78;;;7.53;;
45488;SDS011;31236;55.026;61.042;2022-07-23T06:32:58;12.82;;;9.28;;
45488;SDS011;31236;55.026;61.042;2022-07-23T06:35:30;12.55;;;8.70;;
45488;SDS011;31236;55.026;61.042;2022-07-23T06:38:01;13.70;;;7.40;;
45488;SDS011;31236;55.026;61.042;2022-07-23T06:40:33;10.88;;;7.33;;
45488;SDS011;31236;55.026;61.042;2022-07-23T06:43:05;9.55;;;6.87;;
45488;SDS011;31236;55.026;61.042;2022-07-23T06:45:37;13.00;;;7.10;;
45488;SDS011;31236;55.026;61.042;2022-07-23T06:48:07;10.65;;;7.42;;
45488;SDS011;31236;55.026;61.042;2022-07-23T06:50:39;12.80;;;6.70;;
45488;SDS011;31236;55.026;61.042;2022-07-23T06:53:13;9.85;;;7.00;;
45488;SDS011;31236;55.026;61.042;2022-07-23T06:55:43;10.93;;;6.53;;
45488;SDS011;31236;55.026;61.042;2022-07-23T06:58:14;11.75;;;8.60;;
45488;SDS011;31236;55.026;61.042;2022-07-23T07:00:46;10.40;;;7.37;;
45488;SDS011;31236;55.026;61.042;2022-07-23T07:03:18;11.45;;;6.03;;
45488;SDS011;31236;55.026;61.042;2022-07-23T07:05:50;13.48;;;6.83;;
45488;SDS011;31236;55.026;61.042;2022-07-23T07:08:20;10.58;;;6.05;;
45488;SDS011;31236;55.026;61.042;2022-07-23T07:10:53;12.58;;;6.95;;
45488;SDS011;31236;55.026;61.042;2022-07-23T07:13:24;10.90;;;6.87;;
45488;SDS011;31236;55.026;61.042;2022-07-23T07:15:58;21.93;;;7.33;;
45488;SDS011;31236;55.026;61.042;2022-07-23T07:18:28;14.65;;;7.17;;
45488;SDS011;31236;55.026;61.042;2022-07-23T07:21:01;11.60;;;7.70;;
45488;SDS011;31236;55.026;61.042;2022-07-23T07:23:33;12.28;;;7.53;;
45488;SDS011;31236;55.026;61.042;2022-07-23T07:26:05;13.03;;;7.62;;
45488;SDS011;31236;55.026;61.042;2022-07-23T07:28:35;10.88;;;7.25;;
45488;SDS011;31236;55.026;61.042;2022-07-23T07:31:06;8.68;;;6.65;;
45488;SDS011;31236;55.026;61.042;2022-07-23T07:33:38;10.00;;;7.25;;
45488;SDS011;31236;55.026;61.042;2022-07-23T07:36:12;17.62;;;7.42;;
45488;SDS011;31236;55.026;61.042;2022-07-23T07:38:43;12.20;;;7.08;;
45488;SDS011;31236;55.026;61.042;2022-07-23T07:41:13;12.85;;;6.85;;
45488;SDS011;31236;55.026;61.042;2022-07-23T07:46:14;10.53;;;6.75;;
45488;SDS011;31236;55.026;61.042;2022-07-23T07:48:46;14.93;;;7.17;;
45488;SDS011;31236;55.026;61.042;2022-07-23T07:51:17;15.35;;;7.80;;
45488;SDS011;31236;55.026;61.042;2022-07-23T07:53:51;12.50;;;7.67;;
45488;SDS011;31236;55.026;61.042;2022-07-23T07:56:22;11.57;;;7.83;;
45488;SDS011;31236;55.026;61.042;2022-07-23T08:01:24;11.53;;;7.15;;
45488;SDS011;31236;55.026;61.042;2022-07-23T08:03:58;13.00;;;7.08;;
45488;SDS011;31236;55.026;61.042;2022-07-23T08:06:29;15.68;;;7.17;;
45488;SDS011;31236;55.026;61.042;2022-07-23T08:09:01;12.70;;;7.10;;
45488;SDS011;31236;55.026;61.042;2022-07-23T08:11:31;15.05;;;9.68;;
45488;SDS011;31236;55.026;61.042;2022-07-23T08:14:02;14.45;;;7.60;;
45488;SDS011;31236;55.026;61.042;2022-07-23T08:16:36;12.43;;;7.28;;
45488;SDS011;31236;55.026;61.042;2022-07-23T08:19:08;10.35;;;6.75;;
45488;SDS011;31236;55.026;61.042;2022-07-23T08:21:38;10.45;;;7.00;;
45488;SDS011;31236;55.026;61.042;2022-07-23T08:24:09;14.35;;;7.25;;
45488;SDS011;31236;55.026;61.042;2022-07-23T08:26:41;12.28;;;6.92;;
45488;SDS011;31236;55.026;61.042;2022-07-23T08:29:11;11.57;;;7.22;;
45488;SDS011;31236;55.026;61.042;2022-07-23T08:31:42;10.38;;;7.28;;
45488;SDS011;31236;55.026;61.042;2022-07-23T08:34:12;15.13;;;7.42;;
45488;SDS011;31236;55.026;61.042;2022-07-23T08:36:42;13.30;;;7.55;;
45488;SDS011;31236;55.026;61.042;2022-07-23T08:39:13;11.97;;;7.45;;
45488;SDS011;31236;55.026;61.042;2022-07-23T08:41:45;9.58;;;7.20;;
45488;SDS011;31236;55.026;61.042;2022-07-23T08:44:17;15.00;;;9.40;;
45488;SDS011;31236;55.026;61.042;2022-07-23T08:46:48;12.10;;;7.33;;
45488;SDS011;31236;55.026;61.042;2022-07-23T08:49:20;9.80;;;7.03;;
45488;SDS011;31236;55.026;61.042;2022-07-23T08:51:53;15.45;;;7.97;;
45488;SDS011;31236;55.026;61.042;2022-07-23T08:56:53;12.82;;;6.95;;
45488;SDS011;31236;55.026;61.042;2022-07-23T08:59:23;13.53;;;7.17;;
45488;SDS011;31236;55.026;61.042;2022-07-23T09:01:54;10.80;;;7.75;;
45488;SDS011;31236;55.026;61.042;2022-07-23T09:04:26;9.05;;;6.78;;
45488;SDS011;31236;55.026;61.042;2022-07-23T09:06:56;13.93;;;7.47;;
45488;SDS011;31236;55.026;61.042;2022-07-23T09:09:27;11.90;;;6.70;;
45488;SDS011;31236;55.026;61.042;2022-07-23T09:14:47;12.68;;;10.25;;
45488;SDS011;31236;55.026;61.042;2022-07-23T09:17:18;11.55;;;7.08;;
45488;SDS011;31236;55.026;61.042;2022-07-23T09:19:48;12.93;;;7.33;;
45488;SDS011;31236;55.026;61.042;2022-07-23T09:25:10;9.90;;;8.05;;
45488;SDS011;31236;55.026;61.042;2022-07-23T09:30:33;12.25;;;7.20;;
45488;SDS011;31236;55.026;61.042;2022-07-23T09:35:53;9.40;;;6.85;;
45488;SDS011;31236;55.026;61.042;2022-07-23T09:38:24;9.83;;;7.10;;
45488;SDS011;31236;55.026;61.042;2022-07-23T09:43:45;8.95;;;7.03;;
45488;SDS011;31236;55.026;61.042;2022-07-23T09:51:56;10.80;;;7.83;;
45488;SDS011;31236;55.026;61.042;2022-07-23T09:54:31;12.45;;;8.60;;
45488;SDS011;31236;55.026;61.042;2022-07-23T09:57:23;14.47;;;8.90;;
45488;SDS011;31236;55.026;61.042;2022-07-23T09:59:56;9.85;;;6.80;;
45488;SDS011;31236;55.026;61.042;2022-07-23T10:02:28;11.97;;;8.33;;
45488;SDS011;31236;55.026;61.042;2022-07-23T10:07:54;11.65;;;7.50;;
45488;SDS011;31236;55.026;61.042;2022-07-23T10:10:25;10.13;;;7.90;;
45488;SDS011;31236;55.026;61.042;2022-07-23T10:12:57;10.45;;;7.08;;
45488;SDS011;31236;55.026;61.042;2022-07-23T10:15:47;11.57;;;7.40;;
45488;SDS011;31236;55.026;61.042;2022-07-23T10:18:17;9.48;;;7.12;;
45488;SDS011;31236;55.026;61.042;2022-07-23T10:20:48;10.95;;;7.33;;
45488;SDS011;31236;55.026;61.042;2022-07-23T10:36:02;13.78;;;6.60;;
45488;SDS011;31236;55.026;61.042;2022-07-23T10:47:06;10.55;;;7.33;;
45488;SDS011;31236;55.026;61.042;2022-07-23T10:50:16;13.75;;;8.08;;
45488;SDS011;31236;55.026;61.042;2022-07-23T10:53:19;18.05;;;12.13;;
45488;SDS011;31236;55.026;61.042;2022-07-23T11:04:11;16.15;;;8.35;;
45488;SDS011;31236;55.026;61.042;2022-07-23T11:15:17;16.42;;;6.25;;
45488;SDS011;31236;55.026;61.042;2022-07-23T11:20:39;7.37;;;5.70;;
45488;SDS011;31236;55.026;61.042;2022-07-23T11:23:13;9.05;;;6.33;;
45488;SDS011;31236;55.026;61.042;2022-07-23T11:25:46;12.65;;;7.08;;
45488;SDS011;31236;55.026;61.042;2022-07-23T11:28:17;11.22;;;6.47;;
45488;SDS011;31236;55.026;61.042;2022-07-23T11:30:49;10.48;;;6.20;;
45488;SDS011;31236;55.026;61.042;2022-07-23T11:33:21;8.68;;;6.47;;
45488;SDS011;31236;55.026;61.042;2022-07-23T11:36:00;10.15;;;6.72;;
45488;SDS011;31236;55.026;61.042;2022-07-23T11:38:43;10.70;;;6.50;;
45488;SDS011;31236;55.026;61.042;2022-07-23T11:43:45;8.78;;;6.30;;
45488;SDS011;31236;55.026;61.042;2022-07-23T11:46:15;10.72;;;7.22;;
45488;SDS011;31236;55.026;61.042;2022-07-23T11:48:46;12.10;;;6.75;;
45488;SDS011;31236;55.026;61.042;2022-07-23T11:54:09;12.28;;;6.50;;
45488;SDS011;31236;55.026;61.042;2022-07-23T11:56:54;12.75;;;7.22;;
45488;SDS011;31236;55.026;61.042;2022-07-23T11:59:16;9.78;;;6.65;;
45488;SDS011;31236;55.026;61.042;2022-07-23T12:15:49;17.27;;;8.38;;
45488;SDS011;31236;55.026;61.042;2022-07-23T12:18:21;15.43;;;8.38;;
45488;SDS011;31236;55.026;61.042;2022-07-23T12:20:54;12.05;;;8.08;;
45488;SDS011;31236;55.026;61.042;2022-07-23T12:23:25;11.97;;;8.48;;
45488;SDS011;31236;55.026;61.042;2022-07-23T12:26:00;13.08;;;7.58;;
45488;SDS011;31236;55.026;61.042;2022-07-23T12:28:33;13.70;;;7.70;;
45488;SDS011;31236;55.026;61.042;2022-07-23T12:31:04;13.30;;;10.85;;
45488;SDS011;31236;55.026;61.042;2022-07-23T12:42:13;17.50;;;13.48;;
45488;SDS011;31236;55.026;61.042;2022-07-23T12:45:02;11.53;;;8.70;;
45488;SDS011;31236;55.026;61.042;2022-07-23T13:04:28;18.25;;;9.95;;
45488;SDS011;31236;55.026;61.042;2022-07-23T13:09:29;9.20;;;6.62;;
45488;SDS011;31236;55.026;61.042;2022-07-23T13:12:02;15.55;;;8.18;;
45488;SDS011;31236;55.026;61.042;2022-07-23T13:14:32;15.13;;;7.25;;
45488;SDS011;31236;55.026;61.042;2022-07-23T13:17:03;12.43;;;7.45;;
45488;SDS011;31236;55.026;61.042;2022-07-23T13:19:33;10.35;;;7.28;;
45488;SDS011;31236;55.026;61.042;2022-07-23T13:22:05;13.48;;;7.17;;
45488;SDS011;31236;55.026;61.042;2022-07-23T13:24:37;10.75;;;7.00;;
45488;SDS011;31236;55.026;61.042;2022-07-23T13:27:08;17.60;;;7.33;;
45488;SDS011;31236;55.026;61.042;2022-07-23T13:29:38;13.05;;;7.65;;
45488;SDS011;31236;55.026;61.042;2022-07-23T13:32:11;14.85;;;8.10;;
45488;SDS011;31236;55.026;61.042;2022-07-23T13:34:42;23.52;;;10.50;;
45488;SDS011;31236;55.026;61.042;2022-07-23T13:37:12;18.85;;;9.20;;
45488;SDS011;31236;55.026;61.042;2022-07-23T13:42:13;34.45;;;18.73;;
45488;SDS011;31236;55.026;61.042;2022-07-23T13:44:45;94.47;;;84.52;;
45488;SDS011;31236;55.026;61.042;2022-07-23T13:47:16;47.10;;;21.17;;
45488;SDS011;31236;55.026;61.042;2022-07-23T13:49:46;36.35;;;10.58;;
45488;SDS011;31236;55.026;61.042;2022-07-23T13:52:19;40.20;;;17.07;;
45488;SDS011;31236;55.026;61.042;2022-07-23T13:54:49;38.92;;;12.85;;
45488;SDS011;31236;55.026;61.042;2022-07-23T13:57:20;35.58;;;14.35;;
45488;SDS011;31236;55.026;61.042;2022-07-23T13:59:50;71.85;;;50.85;;
45488;SDS011;31236;55.026;61.042;2022-07-23T14:02:20;63.08;;;40.17;;
45488;SDS011;31236;55.026;61.042;2022-07-23T14:04:51;37.00;;;26.23;;
45488;SDS011;31236;55.026;61.042;2022-07-23T14:09:52;15.13;;;9.70;;
45488;SDS011;31236;55.026;61.042;2022-07-23T14:12:22;15.85;;;12.03;;
45488;SDS011;31236;55.026;61.042;2022-07-23T14:14:53;28.92;;;11.33;;
45488;SDS011;31236;55.026;61.042;2022-07-23T14:17:23;23.55;;;13.45;;
45488;SDS011;31236;55.026;61.042;2022-07-23T14:22:24;29.70;;;23.70;;
45488;SDS011;31236;55.026;61.042;2022-07-23T14:24:54;40.63;;;33.53;;
45488;SDS011;31236;55.026;61.042;2022-07-23T14:27:25;30.27;;;12.82;;
45488;SDS011;31236;55.026;61.042;2022-07-23T14:29:56;26.68;;;10.60;;
45488;SDS011;31236;55.026;61.042;2022-07-23T14:32:26;17.52;;;12.35;;
45488;SDS011;31236;55.026;61.042;2022-07-23T14:34:57;30.35;;;11.33;;
45488;SDS011;31236;55.026;61.042;2022-07-23T14:37:28;25.23;;;11.25;;
45488;SDS011;31236;55.026;61.042;2022-07-23T14:39:58;20.45;;;9.53;;
45488;SDS011;31236;55.026;61.042;2022-07-23T14:42:31;18.98;;;7.95;;
45488;SDS011;31236;55.026;61.042;2022-07-23T14:45:01;16.42;;;8.80;;
45488;SDS011;31236;55.026;61.042;2022-07-23T14:47:32;27.13;;;14.65;;
45488;SDS011;31236;55.026;61.042;2022-07-23T14:50:03;17.62;;;10.70;;
45488;SDS011;31236;55.026;61.042;2022-07-23T14:52:34;12.37;;;9.38;;
45488;SDS011;31236;55.026;61.042;2022-07-23T14:55:04;13.78;;;7.95;;
45488;SDS011;31236;55.026;61.042;2022-07-23T14:57:37;16.12;;;8.18;;
45488;SDS011;31236;55.026;61.042;2022-07-23T15:00:07;14.55;;;7.55;;
45488;SDS011;31236;55.026;61.042;2022-07-23T15:02:39;12.65;;;8.38;;
45488;SDS011;31236;55.026;61.042;2022-07-23T15:05:09;15.85;;;7.75;;
45488;SDS011;31236;55.026;61.042;2022-07-23T15:07:40;16.32;;;10.20;;
45488;SDS011;31236;55.026;61.042;2022-07-23T15:10:10;12.78;;;7.90;;
45488;SDS011;31236;55.026;61.042;2022-07-23T15:12:41;13.95;;;7.90;;
45488;SDS011;31236;55.026;61.042;2022-07-23T15:15:11;13.08;;;7.72;;
45488;SDS011;31236;55.026;61.042;2022-07-23T15:17:42;11.10;;;8.13;;
45488;SDS011;31236;55.026;61.042;2022-07-23T15:20:12;13.72;;;8.20;;
45488;SDS011;31236;55.026;61.042;2022-07-23T15:22:43;11.50;;;8.10;;
45488;SDS011;31236;55.026;61.042;2022-07-23T15:25:14;12.20;;;7.80;;
45488;SDS011;31236;55.026;61.042;2022-07-23T15:27:44;12.90;;;9.35;;
45488;SDS011;31236;55.026;61.042;2022-07-23T15:30:14;11.55;;;8.55;;
45488;SDS011;31236;55.026;61.042;2022-07-23T15:32:44;13.80;;;8.35;;
45488;SDS011;31236;55.026;61.042;2022-07-23T15:35:15;13.48;;;8.70;;
45488;SDS011;31236;55.026;61.042;2022-07-23T15:37:49;13.30;;;8.50;;
45488;SDS011;31236;55.026;61.042;2022-07-23T15:40:19;14.30;;;9.08;;
45488;SDS011;31236;55.026;61.042;2022-07-23T15:42:52;14.35;;;8.80;;
45488;SDS011;31236;55.026;61.042;2022-07-23T15:45:22;14.90;;;8.83;;
45488;SDS011;31236;55.026;61.042;2022-07-23T15:47:57;13.40;;;9.25;;
45488;SDS011;31236;55.026;61.042;2022-07-23T15:50:29;14.53;;;9.83;;
45488;SDS011;31236;55.026;61.042;2022-07-23T15:53:00;14.75;;;9.15;;
45488;SDS011;31236;55.026;61.042;2022-07-23T15:55:32;17.02;;;9.53;;
45488;SDS011;31236;55.026;61.042;2022-07-23T15:58:04;17.17;;;9.55;;
45488;SDS011;31236;55.026;61.042;2022-07-23T16:00:37;13.60;;;9.15;;
45488;SDS011;31236;55.026;61.042;2022-07-23T16:03:10;14.07;;;9.43;;
45488;SDS011;31236;55.026;61.042;2022-07-23T16:05:40;12.07;;;8.83;;
45488;SDS011;31236;55.026;61.042;2022-07-23T16:08:12;15.00;;;9.33;;
45488;SDS011;31236;55.026;61.042;2022-07-23T16:10:43;15.65;;;8.40;;
45488;SDS011;31236;55.026;61.042;2022-07-23T16:15:44;12.60;;;8.53;;
45488;SDS011;31236;55.026;61.042;2022-07-23T16:18:16;18.25;;;8.83;;
45488;SDS011;31236;55.026;61.042;2022-07-23T16:20:48;10.38;;;7.60;;
45488;SDS011;31236;55.026;61.042;2022-07-23T16:23:19;11.18;;;8.18;;
45488;SDS011;31236;55.026;61.042;2022-07-23T16:25:53;16.42;;;8.63;;
45488;SDS011;31236;55.026;61.042;2022-07-23T16:28:25;17.15;;;8.18;;
45488;SDS011;31236;55.026;61.042;2022-07-23T16:30:58;12.63;;;7.95;;
45488;SDS011;31236;55.026;61.042;2022-07-23T16:33:30;12.88;;;8.23;;
45488;SDS011;31236;55.026;61.042;2022-07-23T16:36:02;15.85;;;8.28;;
45488;SDS011;31236;55.026;61.042;2022-07-23T16:38:37;16.57;;;9.73;;
45488;SDS011;31236;55.026;61.042;2022-07-23T16:41:08;18.75;;;9.73;;
45488;SDS011;31236;55.026;61.042;2022-07-23T16:46:09;14.00;;;10.65;;
45488;SDS011;31236;55.026;61.042;2022-07-23T16:48:41;14.50;;;10.63;;
45488;SDS011;31236;55.026;61.042;2022-07-23T16:51:13;15.70;;;8.48;;
45488;SDS011;31236;55.026;61.042;2022-07-23T16:53:46;12.70;;;8.55;;
45488;SDS011;31236;55.026;61.042;2022-07-23T16:56:18;14.03;;;8.18;;
45488;SDS011;31236;55.026;61.042;2022-07-23T16:58:50;11.70;;;8.10;;
45488;SDS011;31236;55.026;61.042;2022-07-23T17:03:52;12.40;;;8.05;;
45488;SDS011;31236;55.026;61.042;2022-07-23T17:06:22;12.07;;;8.05;;
45488;SDS011;31236;55.026;61.042;2022-07-23T17:11:23;14.13;;;8.58;;
45488;SDS011;31236;55.026;61.042;2022-07-23T17:13:54;12.75;;;8.53;;
45488;SDS011;31236;55.026;61.042;2022-07-23T17:16:24;10.93;;;8.03;;